sensor_id;sensor_type;location;lat;lon;timestamp;pressure;altitude;pressure_sealevel;temperature;humidity
69035;BME280;56091;55.756;37.412;2023-01-28T00:00:58;99669.53;;;-2.05;84.74
69035;BME280;56091;55.756;37.412;2023-01-28T00:06:04;99669.03;;;-1.92;85.31
69035;BME280;56091;55.756;37.412;2023-01-28T00:11:06;99666.06;;;-1.81;85.06
69035;BME280;56091;55.756;37.412;2023-01-28T00:16:08;99666.56;;;-1.69;84.46
69035;BME280;56091;55.756;37.412;2023-01-28T00:21:12;99647.38;;;-1.71;84.13
69035;BME280;56091;55.756;37.412;2023-01-28T00:26:13;99591.72;;;-2.10;83.54
69035;BME280;56091;55.756;37.412;2023-01-28T00:31:24;99673.00;;;-1.80;84.39
69035;BME280;56091;55.756;37.412;2023-01-28T00:36:28;99675.81;;;-1.81;83.73
69035;BME280;56091;55.756;37.412;2023-01-28T00:41:29;99665.91;;;-1.79;83.48
69035;BME280;56091;55.756;37.412;2023-01-28T00:46:31;99683.25;;;-1.77;83.33
69035;BME280;56091;55.756;37.412;2023-01-28T00:51:33;99671.03;;;-1.86;83.05
69035;BME280;56091;55.756;37.412;2023-01-28T00:56:34;99678.94;;;-1.94;82.53
69035;BME280;56091;55.756;37.412;2023-01-28T01:01:36;99680.13;;;-1.97;82.98
69035;BME280;56091;55.756;37.412;2023-01-28T01:06:38;99678.28;;;-2.04;83.06
69035;BME280;56091;55.756;37.412;2023-01-28T01:11:40;99679.75;;;-2.02;82.76
69035;BME280;56091;55.756;37.412;2023-01-28T01:16:40;99687.03;;;-1.96;82.28
69035;BME280;56091;55.756;37.412;2023-01-28T01:21:41;99680.25;;;-1.90;82.08
69035;BME280;56091;55.756;37.412;2023-01-28T01:26:43;99684.72;;;-1.82;82.42
69035;BME280;56091;55.756;37.412;2023-01-28T01:31:44;99689.03;;;-1.73;81.76
69035;BME280;56091;55.756;37.412;2023-01-28T01:36:44;99688.88;;;-1.71;81.45
69035;BME280;56091;55.756;37.412;2023-01-28T01:41:45;99663.91;;;-1.85;81.13
69035;BME280;56091;55.756;37.412;2023-01-28T01:46:48;99667.72;;;-1.80;80.63
69035;BME280;56091;55.756;37.412;2023-01-28T01:51:57;99678.13;;;-1.70;80.56
69035;BME280;56091;55.756;37.412;2023-01-28T01:57:02;99668.72;;;-1.72;80.21
69035;BME280;56091;55.756;37.412;2023-01-28T02:02:06;99681.28;;;-1.66;80.07
69035;BME280;56091;55.756;37.412;2023-01-28T02:07:14;99688.41;;;-1.67;79.68
69035;BME280;56091;55.756;37.412;2023-01-28T02:12:25;99689.53;;;-1.78;79.03
69035;BME280;56091;55.756;37.412;2023-01-28T02:17:28;99690.38;;;-1.93;79.24
69035;BME280;56091;55.756;37.412;2023-01-28T02:33:07;99693.91;;;-2.36;80.03
69035;BME280;56091;55.756;37.412;2023-01-28T02:38:19;99699.47;;;-2.47;80.69
69035;BME280;56091;55.756;37.412;2023-01-28T02:43:41;99694.41;;;-2.40;80.66
69035;BME280;56091;55.756;37.412;2023-01-28T02:48:42;99700.84;;;-2.34;80.46
69035;BME280;56091;55.756;37.412;2023-01-28T02:53:54;99710.97;;;-2.22;80.63
69035;BME280;56091;55.756;37.412;2023-01-28T02:59:02;99715.09;;;-2.27;80.30
69035;BME280;56091;55.756;37.412;2023-01-28T03:04:32;99720.84;;;-2.32;80.34
69035;BME280;56091;55.756;37.412;2023-01-28T03:09:35;99708.13;;;-2.37;80.18
69035;BME280;56091;55.756;37.412;2023-01-28T03:14:40;99715.41;;;-2.30;80.01
69035;BME280;56091;55.756;37.412;2023-01-28T03:19:59;99724.16;;;-2.30;79.60
69035;BME280;56091;55.756;37.412;2023-01-28T03:25:20;99721.66;;;-2.40;79.99
69035;BME280;56091;55.756;37.412;2023-01-28T03:30:53;99718.72;;;-2.20;79.27
69035;BME280;56091;55.756;37.412;2023-01-28T03:36:21;99711.94;;;-2.23;78.68
69035;BME280;56091;55.756;37.412;2023-01-28T03:42:17;99724.81;;;-2.28;78.43
69035;BME280;56091;55.756;37.412;2023-01-28T03:47:46;99716.06;;;-2.37;78.89
69035;BME280;56091;55.756;37.412;2023-01-28T03:52:46;99716.25;;;-2.22;79.56
69035;BME280;56091;55.756;37.412;2023-01-28T03:58:04;99718.25;;;-2.16;78.60
69035;BME280;56091;55.756;37.412;2023-01-28T04:03:05;99711.88;;;-2.47;79.32
69035;BME280;56091;55.756;37.412;2023-01-28T04:08:15;99704.59;;;-2.53;79.19
69035;BME280;56091;55.756;37.412;2023-01-28T04:13:36;99723.53;;;-2.58;79.11
69035;BME280;56091;55.756;37.412;2023-01-28T04:18:37;99717.84;;;-2.80;79.59
69035;BME280;56091;55.756;37.412;2023-01-28T04:23:38;99728.91;;;-2.84;79.90
69035;BME280;56091;55.756;37.412;2023-01-28T04:28:40;99723.28;;;-2.81;79.92
69035;BME280;56091;55.756;37.412;2023-01-28T04:33:41;99725.13;;;-2.73;nan
69035;BME280;56091;55.756;37.412;2023-01-28T04:39:05;99725.50;;;-2.68;79.56
69035;BME280;56091;55.756;37.412;2023-01-28T04:44:26;99720.22;;;-2.68;78.67
69035;BME280;56091;55.756;37.412;2023-01-28T04:49:41;99718.25;;;-3.01;78.86
69035;BME280;56091;55.756;37.412;2023-01-28T04:55:05;99719.53;;;-3.05;77.83
69035;BME280;56091;55.756;37.412;2023-01-28T05:00:07;99732.22;;;-2.82;77.59
69035;BME280;56091;55.756;37.412;2023-01-28T05:05:08;99730.81;;;-2.95;77.15
69035;BME280;56091;55.756;37.412;2023-01-28T05:10:22;99727.50;;;-3.23;77.48
69035;BME280;56091;55.756;37.412;2023-01-28T05:15:23;99751.28;;;-2.88;77.09
69035;BME280;56091;55.756;37.412;2023-01-28T05:20:26;99720.91;;;-2.92;76.57
69035;BME280;56091;55.756;37.412;2023-01-28T05:25:30;99735.78;;;-2.91;76.46
69035;BME280;56091;55.756;37.412;2023-01-28T05:30:31;99751.03;;;-2.77;76.71
69035;BME280;56091;55.756;37.412;2023-01-28T05:35:32;99727.72;;;-3.16;76.85
69035;BME280;56091;55.756;37.412;2023-01-28T05:40:33;99752.97;;;-2.87;77.16
69035;BME280;56091;55.756;37.412;2023-01-28T05:45:34;99752.47;;;-2.83;75.90
69035;BME280;56091;55.756;37.412;2023-01-28T05:50:42;99761.59;;;-2.77;75.84
69035;BME280;56091;55.756;37.412;2023-01-28T05:55:54;99757.88;;;-2.92;75.18
69035;BME280;56091;55.756;37.412;2023-01-28T06:00:56;99759.91;;;-3.12;75.81
69035;BME280;56091;55.756;37.412;2023-01-28T06:06:03;99745.38;;;-3.17;75.57
69035;BME280;56091;55.756;37.412;2023-01-28T06:11:05;99770.63;;;-3.14;75.58
69035;BME280;56091;55.756;37.412;2023-01-28T06:16:07;99759.13;;;-3.05;75.45
69035;BME280;56091;55.756;37.412;2023-01-28T06:21:32;99763.66;;;-3.15;75.66
69035;BME280;56091;55.756;37.412;2023-01-28T06:26:36;99770.00;;;-3.08;76.34
69035;BME280;56091;55.756;37.412;2023-01-28T06:31:37;99775.34;;;-3.00;75.86
69035;BME280;56091;55.756;37.412;2023-01-28T06:36:38;99780.00;;;-2.93;76.06
69035;BME280;56091;55.756;37.412;2023-01-28T06:41:39;99772.38;;;-2.97;75.57
69035;BME280;56091;55.756;37.412;2023-01-28T06:46:39;99781.44;;;-2.99;75.91
69035;BME280;56091;55.756;37.412;2023-01-28T06:51:40;99790.72;;;-2.95;75.80
69035;BME280;56091;55.756;37.412;2023-01-28T06:56:41;99787.94;;;-3.11;76.37
69035;BME280;56091;55.756;37.412;2023-01-28T07:01:42;99791.53;;;-2.95;76.35
69035;BME280;56091;55.756;37.412;2023-01-28T07:06:43;99785.28;;;-2.93;76.07
69035;BME280;56091;55.756;37.412;2023-01-28T07:11:43;99781.22;;;-3.06;76.69
69035;BME280;56091;55.756;37.412;2023-01-28T07:16:44;99789.13;;;-2.88;76.21
69035;BME280;56091;55.756;37.412;2023-01-28T07:21:47;99786.72;;;-2.73;75.49
69035;BME280;56091;55.756;37.412;2023-01-28T07:26:56;99793.47;;;-2.79;75.54
69035;BME280;56091;55.756;37.412;2023-01-28T07:31:57;99789.03;;;-2.70;75.45
69035;BME280;56091;55.756;37.412;2023-01-28T07:37:01;99793.22;;;-2.59;75.34
69035;BME280;56091;55.756;37.412;2023-01-28T07:42:05;99789.97;;;-2.45;74.86
69035;BME280;56091;55.756;37.412;2023-01-28T07:47:10;99782.28;;;-2.30;74.61
69035;BME280;56091;55.756;37.412;2023-01-28T07:52:11;99785.44;;;-2.26;73.20
69035;BME280;56091;55.756;37.412;2023-01-28T07:57:12;99784.56;;;-2.43;73.74
69035;BME280;56091;55.756;37.412;2023-01-28T08:02:13;99779.63;;;-2.38;73.99
69035;BME280;56091;55.756;37.412;2023-01-28T08:07:14;99777.66;;;-2.36;74.13
69035;BME280;56091;55.756;37.412;2023-01-28T08:12:14;99769.41;;;-2.33;73.57
69035;BME280;56091;55.756;37.412;2023-01-28T08:17:15;99780.03;;;-2.17;73.55
69035;BME280;56091;55.756;37.412;2023-01-28T08:22:16;99782.34;;;-2.22;72.91
69035;BME280;56091;55.756;37.412;2023-01-28T08:27:17;99772.72;;;-2.31;73.25
69035;BME280;56091;55.756;37.412;2023-01-28T08:32:18;99777.66;;;-2.28;73.28
69035;BME280;56091;55.756;37.412;2023-01-28T08:37:19;99774.06;;;-2.19;73.08
69035;BME280;56091;55.756;37.412;2023-01-28T08:42:19;99773.75;;;-2.16;72.91
69035;BME280;56091;55.756;37.412;2023-01-28T08:47:20;99767.16;;;-2.20;72.93
69035;BME280;56091;55.756;37.412;2023-01-28T08:52:21;99768.34;;;-1.98;72.71
69035;BME280;56091;55.756;37.412;2023-01-28T08:57:22;99767.06;;;-1.93;72.35
69035;BME280;56091;55.756;37.412;2023-01-28T09:02:23;99768.47;;;-2.24;72.60
69035;BME280;56091;55.756;37.412;2023-01-28T09:07:24;99770.31;;;-2.16;72.65
69035;BME280;56091;55.756;37.412;2023-01-28T09:12:25;99765.19;;;-2.01;72.32
69035;BME280;56091;55.756;37.412;2023-01-28T09:17:26;99753.34;;;-1.89;72.20
69035;BME280;56091;55.756;37.412;2023-01-28T09:22:27;99760.97;;;-1.78;71.56
69035;BME280;56091;55.756;37.412;2023-01-28T09:27:28;99747.56;;;-1.76;72.62
69035;BME280;56091;55.756;37.412;2023-01-28T09:32:29;99757.50;;;-1.70;71.17
69035;BME280;56091;55.756;37.412;2023-01-28T09:37:30;99742.59;;;-1.79;70.70
69035;BME280;56091;55.756;37.412;2023-01-28T09:47:50;99748.41;;;-1.75;70.78
69035;BME280;56091;55.756;37.412;2023-01-28T09:52:54;99742.78;;;-1.72;70.76
69035;BME280;56091;55.756;37.412;2023-01-28T09:57:57;99737.63;;;-1.82;70.55
69035;BME280;56091;55.756;37.412;2023-01-28T10:19:01;99730.38;;;-1.64;69.82
69035;BME280;56091;55.756;37.412;2023-01-28T10:29:23;99716.97;;;-1.38;69.63
69035;BME280;56091;55.756;37.412;2023-01-28T10:34:25;99716.31;;;-1.23;68.22
69035;BME280;56091;55.756;37.412;2023-01-28T10:39:27;99711.84;;;-1.23;68.00
69035;BME280;56091;55.756;37.412;2023-01-28T10:44:37;99699.59;;;-1.24;67.57
69035;BME280;56091;55.756;37.412;2023-01-28T10:49:45;99704.22;;;-1.17;67.76
69035;BME280;56091;55.756;37.412;2023-01-28T10:54:58;99703.25;;;-1.25;68.12
69035;BME280;56091;55.756;37.412;2023-01-28T11:00:10;99685.00;;;-1.20;67.50
69035;BME280;56091;55.756;37.412;2023-01-28T11:05:20;99694.47;;;-1.17;67.10
69035;BME280;56091;55.756;37.412;2023-01-28T11:10:33;99681.88;;;-1.15;67.03
69035;BME280;56091;55.756;37.412;2023-01-28T11:15:45;99676.56;;;-1.07;67.12
69035;BME280;56091;55.756;37.412;2023-01-28T11:21:14;99672.59;;;-1.11;67.14
69035;BME280;56091;55.756;37.412;2023-01-28T11:26:19;99661.69;;;-1.08;67.37
69035;BME280;56091;55.756;37.412;2023-01-28T11:31:22;99675.41;;;-1.04;66.51
69035;BME280;56091;55.756;37.412;2023-01-28T11:36:25;99664.97;;;-1.06;66.67
69035;BME280;56091;55.756;37.412;2023-01-28T11:41:30;99666.28;;;-1.02;66.76
69035;BME280;56091;55.756;37.412;2023-01-28T11:52:20;99652.50;;;-0.89;66.35
69035;BME280;56091;55.756;37.412;2023-01-28T11:57:28;99642.06;;;-0.90;66.08
69035;BME280;56091;55.756;37.412;2023-01-28T12:17:57;99629.59;;;-0.82;66.18
69035;BME280;56091;55.756;37.412;2023-01-28T12:23:27;99637.59;;;-0.90;66.14
69035;BME280;56091;55.756;37.412;2023-01-28T12:29:00;99628.03;;;-0.99;66.43
69035;BME280;56091;55.756;37.412;2023-01-28T12:45:04;99609.03;;;-1.11;66.70
69035;BME280;56091;55.756;37.412;2023-01-28T12:50:17;99610.50;;;-1.08;66.99
69035;BME280;56091;55.756;37.412;2023-01-28T13:00:33;99594.66;;;-1.16;67.62
69035;BME280;56091;55.756;37.412;2023-01-28T13:05:45;99596.50;;;-1.25;67.40
69035;BME280;56091;55.756;37.412;2023-01-28T13:10:47;99608.94;;;-1.26;67.47
69035;BME280;56091;55.756;37.412;2023-01-28T13:15:52;99609.88;;;-1.10;67.72
69035;BME280;56091;55.756;37.412;2023-01-28T13:20:55;99605.75;;;-1.13;66.96
69035;BME280;56091;55.756;37.412;2023-01-28T13:26:09;99598.66;;;-1.21;67.45
69035;BME280;56091;55.756;37.412;2023-01-28T13:31:21;99601.38;;;-0.98;67.20
69035;BME280;56091;55.756;37.412;2023-01-28T13:46:45;99583.28;;;-0.86;66.61
69035;BME280;56091;55.756;37.412;2023-01-28T13:52:11;99584.19;;;-0.70;67.00
69035;BME280;56091;55.756;37.412;2023-01-28T14:13:53;99561.25;;;-1.17;68.48
69035;BME280;56091;55.756;37.412;2023-01-28T14:18:59;99565.03;;;-1.12;67.75
69035;BME280;56091;55.756;37.412;2023-01-28T14:24:02;99548.47;;;-1.62;68.45
69035;BME280;56091;55.756;37.412;2023-01-28T14:39:23;99559.91;;;-1.69;70.64
69035;BME280;56091;55.756;37.412;2023-01-28T14:44:34;99571.69;;;-1.80;71.16
69035;BME280;56091;55.756;37.412;2023-01-28T15:00:31;99556.16;;;-2.00;72.07
69035;BME280;56091;55.756;37.412;2023-01-28T15:05:33;99550.72;;;-2.06;71.99
69035;BME280;56091;55.756;37.412;2023-01-28T15:10:37;99546.75;;;-2.19;72.81
69035;BME280;56091;55.756;37.412;2023-01-28T15:15:40;99552.53;;;-2.40;73.96
69035;BME280;56091;55.756;37.412;2023-01-28T15:20:44;99545.28;;;-2.46;74.44
69035;BME280;56091;55.756;37.412;2023-01-28T15:25:46;99518.66;;;-2.52;74.20
69035;BME280;56091;55.756;37.412;2023-01-28T15:30:46;99524.78;;;-2.36;73.64
69035;BME280;56091;55.756;37.412;2023-01-28T15:35:52;99542.78;;;-2.23;73.80
69035;BME280;56091;55.756;37.412;2023-01-28T15:40:57;99537.84;;;-2.34;74.22
69035;BME280;56091;55.756;37.412;2023-01-28T15:45:58;99528.09;;;-2.50;74.87
69035;BME280;56091;55.756;37.412;2023-01-28T15:51:08;99515.38;;;-2.38;74.73
69035;BME280;56091;55.756;37.412;2023-01-28T15:56:27;99517.69;;;-2.10;73.84
69035;BME280;56091;55.756;37.412;2023-01-28T16:01:28;99516.19;;;-2.21;73.98
69035;BME280;56091;55.756;37.412;2023-01-28T16:06:36;99516.19;;;-2.13;73.47
69035;BME280;56091;55.756;37.412;2023-01-28T16:11:39;99508.72;;;-2.01;73.19
69035;BME280;56091;55.756;37.412;2023-01-28T16:16:45;99499.63;;;-1.90;72.63
69035;BME280;56091;55.756;37.412;2023-01-28T16:21:47;99444.50;;;-2.26;72.29
69035;BME280;56091;55.756;37.412;2023-01-28T16:27:04;99502.94;;;-1.80;72.37
69035;BME280;56091;55.756;37.412;2023-01-28T16:32:26;99503.53;;;-1.70;71.88
69035;BME280;56091;55.756;37.412;2023-01-28T16:37:28;99438.38;;;-2.10;72.29
69035;BME280;56091;55.756;37.412;2023-01-28T16:42:31;99489.00;;;-1.74;72.24
69035;BME280;56091;55.756;37.412;2023-01-28T16:47:32;99496.13;;;-1.74;72.10
69035;BME280;56091;55.756;37.412;2023-01-28T16:52:33;99491.78;;;-1.67;71.73
69035;BME280;56091;55.756;37.412;2023-01-28T16:57:34;99472.03;;;-1.96;72.26
69035;BME280;56091;55.756;37.412;2023-01-28T17:02:35;99485.72;;;-1.76;72.12
69035;BME280;56091;55.756;37.412;2023-01-28T17:07:36;99475.31;;;-1.78;71.56
69035;BME280;56091;55.756;37.412;2023-01-28T17:12:38;99479.75;;;-1.70;71.48
69035;BME280;56091;55.756;37.412;2023-01-28T17:17:39;99474.50;;;-1.86;72.10
69035;BME280;56091;55.756;37.412;2023-01-28T17:22:40;99470.72;;;-2.00;72.85
69035;BME280;56091;55.756;37.412;2023-01-28T17:27:41;99480.44;;;-1.84;72.15
69035;BME280;56091;55.756;37.412;2023-01-28T17:32:41;99476.63;;;-1.90;72.22
69035;BME280;56091;55.756;37.412;2023-01-28T17:37:42;99466.59;;;-1.94;72.41
69035;BME280;56091;55.756;37.412;2023-01-28T17:42:43;99449.75;;;-1.93;72.17
69035;BME280;56091;55.756;37.412;2023-01-28T17:47:44;99446.03;;;-1.76;71.89
69035;BME280;56091;55.756;37.412;2023-01-28T17:52:45;99466.13;;;-1.59;71.60
69035;BME280;56091;55.756;37.412;2023-01-28T17:57:46;99460.69;;;-1.57;71.49
69035;BME280;56091;55.756;37.412;2023-01-28T18:02:49;99461.06;;;-1.77;72.01
69035;BME280;56091;55.756;37.412;2023-01-28T18:07:51;99444.16;;;-1.67;72.11
69035;BME280;56091;55.756;37.412;2023-01-28T18:12:52;99425.69;;;-1.75;71.88
69035;BME280;56091;55.756;37.412;2023-01-28T18:17:53;99443.97;;;-1.58;71.63
69035;BME280;56091;55.756;37.412;2023-01-28T18:22:54;99438.66;;;-1.58;71.70
69035;BME280;56091;55.756;37.412;2023-01-28T18:27:55;99441.84;;;-1.62;71.70
69035;BME280;56091;55.756;37.412;2023-01-28T18:32:56;99445.06;;;-1.83;72.70
69035;BME280;56091;55.756;37.412;2023-01-28T18:37:57;99436.59;;;-1.79;72.80
69035;BME280;56091;55.756;37.412;2023-01-28T18:43:02;99430.34;;;-1.78;72.08
69035;BME280;56091;55.756;37.412;2023-01-28T18:48:04;99423.13;;;-2.00;72.69
69035;BME280;56091;55.756;37.412;2023-01-28T18:53:05;99420.34;;;-1.99;73.30
69035;BME280;56091;55.756;37.412;2023-01-28T18:58:06;99397.22;;;-2.13;73.44
69035;BME280;56091;55.756;37.412;2023-01-28T19:03:07;99409.59;;;-2.05;73.42
69035;BME280;56091;55.756;37.412;2023-01-28T19:08:08;99397.47;;;-2.31;73.82
69035;BME280;56091;55.756;37.412;2023-01-28T19:13:09;99388.34;;;-2.28;74.12
69035;BME280;56091;55.756;37.412;2023-01-28T19:18:10;99392.00;;;-2.29;75.06
69035;BME280;56091;55.756;37.412;2023-01-28T19:23:10;99403.03;;;-2.26;75.60
69035;BME280;56091;55.756;37.412;2023-01-28T19:28:12;99406.81;;;-2.20;75.70
69035;BME280;56091;55.756;37.412;2023-01-28T19:33:13;99394.09;;;-2.17;75.36
69035;BME280;56091;55.756;37.412;2023-01-28T19:38:13;99407.34;;;-2.25;75.92
69035;BME280;56091;55.756;37.412;2023-01-28T19:43:14;99339.38;;;-2.56;75.75
69035;BME280;56091;55.756;37.412;2023-01-28T19:48:15;99394.09;;;-2.08;74.97
69035;BME280;56091;55.756;37.412;2023-01-28T19:53:16;99383.88;;;-2.20;74.77
69035;BME280;56091;55.756;37.412;2023-01-28T19:58:18;99385.31;;;-2.09;75.21
69035;BME280;56091;55.756;37.412;2023-01-28T20:03:19;99386.31;;;-2.10;75.15
69035;BME280;56091;55.756;37.412;2023-01-28T20:08:20;99385.84;;;-2.13;75.61
69035;BME280;56091;55.756;37.412;2023-01-28T20:13:21;99378.88;;;-2.14;75.87
69035;BME280;56091;55.756;37.412;2023-01-28T20:18:22;99353.50;;;-2.32;76.68
69035;BME280;56091;55.756;37.412;2023-01-28T20:23:25;99368.19;;;-2.21;76.08
69035;BME280;56091;55.756;37.412;2023-01-28T20:28:26;99361.75;;;-2.27;76.27
69035;BME280;56091;55.756;37.412;2023-01-28T20:33:27;99360.91;;;-2.19;76.18
69035;BME280;56091;55.756;37.412;2023-01-28T20:38:29;99354.16;;;-2.30;76.09
69035;BME280;56091;55.756;37.412;2023-01-28T20:43:35;99345.09;;;-2.27;76.12
69035;BME280;56091;55.756;37.412;2023-01-28T20:48:36;99344.53;;;-2.14;75.91
69035;BME280;56091;55.756;37.412;2023-01-28T20:53:37;99333.19;;;-2.23;75.85
69035;BME280;56091;55.756;37.412;2023-01-28T20:58:39;99355.13;;;-2.23;76.03
69035;BME280;56091;55.756;37.412;2023-01-28T21:03:40;99347.25;;;-2.39;76.65
69035;BME280;56091;55.756;37.412;2023-01-28T21:08:41;99337.03;;;-2.50;77.60
69035;BME280;56091;55.756;37.412;2023-01-28T21:13:42;99321.91;;;-2.65;77.98
69035;BME280;56091;55.756;37.412;2023-01-28T21:18:43;99321.38;;;-2.60;78.24
69035;BME280;56091;55.756;37.412;2023-01-28T21:23:44;99314.13;;;-2.66;78.43
69035;BME280;56091;55.756;37.412;2023-01-28T21:28:45;99311.66;;;-2.60;78.71
69035;BME280;56091;55.756;37.412;2023-01-28T21:33:50;99304.22;;;-2.64;78.73
69035;BME280;56091;55.756;37.412;2023-01-28T21:38:53;99306.88;;;-2.56;78.34
69035;BME280;56091;55.756;37.412;2023-01-28T21:43:55;99294.31;;;-2.62;78.25
69035;BME280;56091;55.756;37.412;2023-01-28T21:48:59;99305.34;;;-2.50;78.20
69035;BME280;56091;55.756;37.412;2023-01-28T21:54:01;99289.03;;;-2.62;78.56
69035;BME280;56091;55.756;37.412;2023-01-28T21:59:02;99287.03;;;-2.60;78.78
69035;BME280;56091;55.756;37.412;2023-01-28T22:04:24;99285.56;;;-2.63;79.26
69035;BME280;56091;55.756;37.412;2023-01-28T22:09:27;99296.03;;;-2.30;78.59
69035;BME280;56091;55.756;37.412;2023-01-28T22:14:28;99267.34;;;-2.41;77.94
69035;BME280;56091;55.756;37.412;2023-01-28T22:19:29;99286.81;;;-2.34;77.04
69035;BME280;56091;55.756;37.412;2023-01-28T22:24:30;99274.78;;;-2.45;77.58
69035;BME280;56091;55.756;37.412;2023-01-28T22:29:31;99265.22;;;-2.46;77.85
69035;BME280;56091;55.756;37.412;2023-01-28T22:34:32;99269.31;;;-2.43;77.84
69035;BME280;56091;55.756;37.412;2023-01-28T22:39:33;99256.75;;;-2.33;80.39
69035;BME280;56091;55.756;37.412;2023-01-28T22:44:33;99234.13;;;-2.04;78.30
69035;BME280;56091;55.756;37.412;2023-01-28T22:49:34;99237.47;;;-2.10;77.69
69035;BME280;56091;55.756;37.412;2023-01-28T22:54:35;99239.94;;;-2.40;77.92
69035;BME280;56091;55.756;37.412;2023-01-28T22:59:36;99240.06;;;-2.33;78.02
69035;BME280;56091;55.756;37.412;2023-01-28T23:04:38;99230.50;;;-2.34;77.83
69035;BME280;56091;55.756;37.412;2023-01-28T23:09:39;99221.34;;;-2.55;77.66
69035;BME280;56091;55.756;37.412;2023-01-28T23:14:40;99215.41;;;-2.57;78.32
69035;BME280;56091;55.756;37.412;2023-01-28T23:19:59;99200.25;;;-2.71;78.31
69035;BME280;56091;55.756;37.412;2023-01-28T23:25:21;99204.34;;;-2.61;77.94
69035;BME280;56091;55.756;37.412;2023-01-28T23:30:23;99192.50;;;-2.65;77.58
69035;BME280;56091;55.756;37.412;2023-01-28T23:35:24;99194.13;;;-2.64;77.63
69035;BME280;56091;55.756;37.412;2023-01-28T23:40:25;99190.72;;;-2.72;77.69
69035;BME280;56091;55.756;37.412;2023-01-28T23:45:26;99170.44;;;-2.80;77.72
69035;BME280;56091;55.756;37.412;2023-01-28T23:50:27;99188.75;;;-2.87;78.34
69035;BME280;56091;55.756;37.412;2023-01-28T23:55:27;99180.56;;;-2.92;78.13
